createdAt,value
2018-04-30T05:13:45.767Z,12.8
2018-04-30T05:14:35.628Z,12.8
2018-04-30T05:15:26.174Z,12.8
2018-04-30T05:16:15.966Z,12.9
2018-04-30T05:17:06.343Z,12.9
2018-04-30T05:17:56.370Z,12.9
2018-04-30T05:18:46.166Z,12.8
2018-04-30T05:19:36.493Z,12.9
2018-04-30T05:20:26.284Z,13.1
2018-04-30T05:21:16.369Z,13.3
2018-04-30T05:22:06.128Z,13.4
2018-04-30T05:22:56.750Z,13.6
2018-04-30T05:23:46.815Z,13.7
2018-04-30T05:24:36.882Z,13.6
2018-04-30T05:25:26.988Z,13.6
2018-04-30T05:26:16.727Z,13.6
2018-04-30T05:27:07.076Z,13.7
2018-04-30T05:27:56.879Z,13.8
2018-04-30T05:28:47.285Z,13.6
2018-04-30T05:29:36.796Z,13.7
2018-04-30T05:30:27.338Z,13.9
2018-04-30T05:31:17.202Z,13.9
2018-04-30T05:32:07.294Z,14.1
2018-04-30T05:32:57.264Z,14.3
2018-04-30T05:33:47.769Z,14.3
2018-04-30T05:34:37.378Z,14.3
2018-04-30T05:35:27.249Z,14.2
2018-04-30T05:36:17.799Z,14.1
2018-04-30T05:37:07.571Z,14.1
2018-04-30T05:37:57.332Z,14.1
2018-04-30T05:38:47.420Z,14.2
2018-04-30T05:39:38.047Z,14.2
2018-04-30T05:40:28.087Z,14.3
2018-04-30T05:41:17.705Z,14.4
2018-04-30T05:42:07.947Z,14.4
2018-04-30T05:42:58.316Z,14.3
2018-04-30T05:43:48.385Z,14.2
2018-04-30T05:44:37.876Z,14.3
2018-04-30T05:45:28.518Z,14.3
2018-04-30T05:46:17.986Z,14.4
2018-04-30T05:47:08.621Z,14.4
2018-04-30T05:47:58.902Z,14.5
2018-04-30T05:48:48.166Z,14.3
2018-04-30T05:49:38.806Z,14.3
2018-04-30T05:50:28.946Z,14.4
2018-04-30T05:51:18.674Z,14.6
2018-04-30T05:52:09.025Z,14.6
2018-04-30T05:52:59.047Z,14.9
2018-04-30T05:53:49.136Z,15.2
2018-04-30T05:54:39.207Z,15.2
2018-04-30T05:55:28.977Z,15.3
2018-04-30T05:56:19.029Z,15.2
2018-04-30T05:57:09.410Z,15.1
2018-04-30T05:57:59.441Z,15.1
2018-04-30T05:58:49.500Z,15.3
2018-04-30T05:59:39.555Z,15.4
2018-04-30T06:00:29.571Z,15.5
2018-04-30T06:01:19.510Z,15.6
2018-04-30T06:02:09.484Z,15.7
2018-04-30T06:02:59.554Z,15.8
2018-04-30T06:03:49.912Z,15.8
2018-04-30T06:04:39.679Z,15.4
2018-04-30T06:05:30.026Z,15.4
2018-04-30T06:06:19.810Z,15.8
2018-04-30T06:07:09.607Z,15.6
2018-04-30T06:08:00.229Z,15.3
2018-04-30T06:08:50.036Z,15
2018-04-30T06:09:40.372Z,15
2018-04-30T06:10:30.404Z,15.2
2018-04-30T06:11:20.541Z,15.3
2018-04-30T06:12:10.489Z,15.5
2018-04-30T06:13:00.612Z,15.5
2018-04-30T06:13:50.680Z,15.4
2018-04-30T06:14:40.722Z,15.3
2018-04-30T06:15:30.785Z,15.3
2018-04-30T06:16:20.597Z,15.6
2018-04-30T06:17:10.913Z,15.8
2018-04-30T06:18:00.707Z,15.9
2018-04-30T06:18:51.045Z,16.1
2018-04-30T06:19:41.205Z,15.9
2018-04-30T06:20:31.179Z,15.4
2018-04-30T06:21:20.660Z,15.4
2018-04-30T06:22:11.312Z,15.6
2018-04-30T06:23:00.801Z,15.8
2018-04-30T06:23:51.231Z,15.8
2018-04-30T06:24:41.542Z,15.6
2018-04-30T06:25:31.557Z,15.8
2018-04-30T06:26:21.635Z,16
2018-04-30T06:27:11.145Z,16.1
2018-04-30T06:28:01.763Z,16.4
2018-04-30T06:28:51.842Z,16.4
2018-04-30T06:29:41.605Z,16.6
2018-04-30T06:30:31.943Z,16.3
2018-04-30T06:31:21.447Z,16.2
2018-04-30T06:32:11.797Z,16.1
2018-04-30T06:33:02.161Z,16.2
2018-04-30T06:33:52.211Z,16.1
2018-04-30T06:34:42.021Z,16.4
2018-04-30T06:35:32.342Z,16.5
2018-04-30T06:36:21.870Z,16.5
2018-04-30T06:37:12.452Z,16.4
2018-04-30T06:38:02.528Z,16.6
2018-04-30T06:38:52.613Z,17.1
2018-04-30T06:39:42.640Z,17.3
2018-04-30T06:40:32.451Z,17.4
2018-04-30T06:41:22.779Z,17.6
2018-04-30T06:42:12.841Z,17.9
2018-04-30T06:43:02.909Z,17.9
2018-04-30T06:43:52.389Z,18.1
2018-04-30T06:44:43.040Z,18.4
2018-04-30T06:45:32.812Z,18.6
2018-04-30T06:46:22.921Z,18.6
2018-04-30T06:47:12.963Z,18.8
2018-04-30T06:48:03.294Z,18.6
2018-04-30T06:49:43.454Z,18.8
2018-04-30T06:51:23.297Z,18.9
2018-04-30T06:52:13.639Z,19.1
2018-04-30T06:53:03.687Z,19.3
2018-04-30T06:53:53.481Z,19.1
2018-04-30T06:54:43.819Z,18.9
2018-04-30T06:55:33.689Z,18.9
2018-04-30T06:56:23.952Z,18.4
2018-04-30T06:58:03.795Z,18.9
2018-04-30T06:58:53.947Z,18.9
2018-04-30T06:59:43.939Z,19.2
2018-04-30T07:00:33.995Z,19
2018-04-30T07:01:24.035Z,19.1
2018-04-30T07:02:14.406Z,18.9
2018-04-30T07:03:04.483Z,18.9
2018-04-30T07:03:54.280Z,18.9
2018-04-30T07:04:44.319Z,18.9
2018-04-30T07:05:34.661Z,18.6
2018-04-30T07:06:24.783Z,18.5
2018-04-30T07:07:14.542Z,18.6
2018-04-30T07:08:04.322Z,18.4
2018-04-30T07:08:54.923Z,18.1
2018-04-30T07:09:45.389Z,18.5
2018-04-30T07:10:35.057Z,18.9
2018-04-30T07:11:25.125Z,19.2
2018-04-30T07:12:15.189Z,19.6
2018-04-30T07:13:04.987Z,19.4
2018-04-30T07:13:55.327Z,19.3
2018-04-30T07:14:44.532Z,19.7
2018-04-30T07:15:35.464Z,19.8
2018-04-30T07:16:25.511Z,20.3
2018-04-30T07:17:15.571Z,20.4
2018-04-30T07:18:05.151Z,20.4
2018-04-30T07:18:55.430Z,20.5
2018-04-30T07:19:45.768Z,20.6
2018-04-30T07:20:35.840Z,20.8
2018-04-30T07:21:25.894Z,20.6
2018-04-30T07:22:15.675Z,20.3
2018-04-30T07:23:06.045Z,20.3
2018-04-30T07:23:55.823Z,20.4
2018-04-30T07:24:45.622Z,20.6
2018-04-30T07:25:35.939Z,20.2
2018-04-30T07:26:26.299Z,20.1
2018-04-30T07:27:16.360Z,20.1
2018-04-30T07:28:06.160Z,20.2
2018-04-30T07:28:56.213Z,20.2
2018-04-30T07:29:46.566Z,20.2
2018-04-30T07:30:36.348Z,19.9
2018-04-30T07:31:26.713Z,19.2
2018-04-30T07:32:16.761Z,19.1
2018-04-30T07:33:07.123Z,19.4
2018-04-30T07:33:56.624Z,19.4
2018-04-30T07:34:46.947Z,19.3
2018-04-30T07:35:37.090Z,19.3
2018-04-30T07:36:27.076Z,19.4
2018-04-30T07:37:17.144Z,19.4
2018-04-30T07:38:06.917Z,19.6
2018-04-30T07:38:56.990Z,19.6
2018-04-30T07:39:47.368Z,19.7
2018-04-30T07:40:36.858Z,19.4
2018-04-30T07:41:27.499Z,19.4
2018-04-30T07:42:17.281Z,19.3
2018-04-30T07:43:07.336Z,19.3
2018-04-30T07:43:57.702Z,19.4
2018-04-30T07:44:47.455Z,19.2
2018-04-30T07:45:37.798Z,19.1
2018-04-30T07:46:27.868Z,19.1
2018-04-30T07:47:17.657Z,19.4
2018-04-30T07:48:07.985Z,19.6
2018-04-30T07:48:57.782Z,19.8
2018-04-30T07:49:47.579Z,20
2018-04-30T07:50:38.199Z,20.4
2018-04-30T07:51:28.252Z,20.5
2018-04-30T07:52:18.054Z,20.9
2018-04-30T07:53:08.170Z,21.2
2018-04-30T07:53:58.450Z,20.9
2018-04-30T07:55:38.569Z,21
2018-04-30T07:56:28.652Z,21.3
2018-04-30T07:57:18.982Z,21.3
2018-04-30T07:58:08.779Z,20.8
2018-04-30T07:58:58.583Z,21.1
2018-04-30T07:59:48.913Z,21.3
2018-04-30T08:00:38.995Z,21.7
2018-04-30T08:01:29.074Z,22.1
2018-04-30T08:02:18.831Z,22.1
2018-04-30T08:03:09.444Z,22.3
2018-04-30T08:03:59.242Z,22.4
2018-04-30T08:04:49.040Z,22.1
2018-04-30T08:05:39.361Z,22.3
2018-04-30T08:06:29.430Z,22.4
2018-04-30T08:07:19.238Z,22.4
2018-04-30T08:08:09.557Z,22.3
2018-04-30T08:08:59.365Z,22.4
2018-04-30T08:09:49.437Z,22.8
2018-04-30T08:10:39.470Z,22.9
2018-04-30T08:11:29.819Z,22.7
2018-04-30T08:12:19.640Z,22.3
2018-04-30T08:13:09.763Z,22.1
2018-04-30T08:14:00.023Z,22.3
2018-04-30T08:14:50.311Z,22.5
2018-04-30T08:15:40.179Z,22.6
2018-04-30T08:16:29.936Z,22.8
2018-04-30T08:17:20.033Z,22.6
2018-04-30T08:18:10.374Z,22.7
2018-04-30T08:18:59.865Z,22.4
2018-04-30T08:19:50.507Z,22.6
2018-04-30T08:20:40.010Z,22.8
2018-04-30T08:21:30.623Z,22.6
2018-04-30T08:22:20.734Z,22.4
2018-04-30T08:23:10.494Z,22.6
2018-04-30T08:24:00.809Z,22.5
2018-04-30T08:24:50.907Z,22.5
2018-04-30T08:25:40.683Z,22.3
2018-04-30T08:26:30.478Z,22.4
2018-04-30T08:27:21.078Z,22.3
2018-04-30T08:28:11.147Z,22.3
2018-04-30T08:29:00.945Z,21.8
2018-04-30T08:29:51.021Z,21.9
2018-04-30T08:30:41.059Z,21.9
2018-04-30T08:31:31.425Z,22.3
2018-04-30T08:32:21.495Z,22.2
2018-04-30T08:33:11.259Z,22.3
2018-04-30T08:34:01.327Z,22.3
2018-04-30T08:34:51.677Z,22.4
2018-04-30T08:35:41.760Z,22.5
2018-04-30T08:36:31.875Z,22.8
2018-04-30T08:37:21.882Z,22.5
2018-04-30T08:38:11.484Z,21.9
2018-04-30T08:39:02.060Z,22
2018-04-30T08:39:51.530Z,22.5
2018-04-30T08:40:42.137Z,22.9
2018-04-30T08:41:32.244Z,23.4
2018-04-30T08:42:21.987Z,22.6
2018-04-30T08:43:12.367Z,22.5
2018-04-30T08:44:02.137Z,23.1
2018-04-30T08:44:52.168Z,23.3
2018-04-30T08:45:42.527Z,23.5
2018-04-30T08:46:32.306Z,23.8
2018-04-30T08:47:22.670Z,23.9
2018-04-30T08:48:12.168Z,24.1
2018-04-30T08:49:02.814Z,24.2
2018-04-30T08:49:52.866Z,24.3
2018-04-30T08:50:42.927Z,24.6
2018-04-30T08:51:32.428Z,24.5
2018-04-30T08:52:23.064Z,24.4
2018-04-30T08:53:12.669Z,24.6
2018-04-30T08:54:02.648Z,24.6
2018-04-30T08:54:53.003Z,24.5
2018-04-30T08:55:42.769Z,24.5
2018-04-30T08:56:33.413Z,24.7
2018-04-30T08:57:22.608Z,24.7
2018-04-30T08:58:13.557Z,24.6
2018-04-30T08:59:03.597Z,24.2
2018-04-30T08:59:53.648Z,24.2
2018-04-30T09:00:43.779Z,24.6
2018-04-30T09:01:33.528Z,24.8
2018-04-30T09:02:23.292Z,24.8
2018-04-30T09:03:13.928Z,24.9
2018-04-30T09:04:03.979Z,25.2
2018-04-30T09:04:54.037Z,25.5
2018-04-30T09:05:44.121Z,25.4
2018-04-30T09:06:34.174Z,25.3
2018-04-30T09:07:23.706Z,25.2
2018-04-30T09:08:14.324Z,25.4
2018-04-30T09:09:03.830Z,25.6
2018-04-30T09:09:54.425Z,24.9
2018-04-30T09:10:44.517Z,25.1
2018-04-30T09:11:34.564Z,25.1
2018-04-30T09:12:24.664Z,25.4
2018-04-30T09:13:14.441Z,25.8
2018-04-30T09:14:04.199Z,25.8
2018-04-30T09:14:54.779Z,25.9
2018-04-30T09:15:44.916Z,26.3
2018-04-30T09:16:34.979Z,26.1
2018-04-30T09:17:24.768Z,26.3
2018-04-30T09:18:14.845Z,25.9
2018-04-30T09:19:04.603Z,25.6
2018-04-30T09:19:54.942Z,25.2
2018-04-30T09:20:45.301Z,25.3
2018-04-30T09:21:35.376Z,25.6
2018-04-30T09:22:25.424Z,25.1
2018-04-30T09:23:14.919Z,25.4
2018-04-30T09:24:05.574Z,25.7
2018-04-30T09:24:55.641Z,25.1
2018-04-30T09:25:45.709Z,24.7
2018-04-30T09:26:35.480Z,24.8
2018-04-30T09:27:25.831Z,25.4
2018-04-30T09:28:16.600Z,26.3
2018-04-30T09:29:06.331Z,26.1
2018-04-30T09:29:56.029Z,26.4
2018-04-30T09:30:46.116Z,26.7
2018-04-30T09:31:36.180Z,26.5
2018-04-30T09:32:26.227Z,26.5
2018-04-30T09:33:16.033Z,26.9
2018-04-30T09:34:06.083Z,27.1
2018-04-30T09:34:56.098Z,27.1
2018-04-30T09:35:45.938Z,27.2
2018-04-30T09:36:36.585Z,27.2
2018-04-30T09:37:26.351Z,26.9
2018-04-30T09:38:16.485Z,27.4
2018-04-30T09:39:06.481Z,27.2
2018-04-30T09:39:56.833Z,26.5
2018-04-30T09:40:46.888Z,26.3
2018-04-30T09:41:36.400Z,26.8
2018-04-30T09:42:27.004Z,26.1
2018-04-30T09:43:16.824Z,25.9
2018-04-30T09:44:06.619Z,26.2
2018-04-30T09:44:57.213Z,25.4
2018-04-30T09:45:47.012Z,24.8
2018-04-30T09:46:37.074Z,24.4
2018-04-30T09:47:27.179Z,24.4
2018-04-30T09:48:17.488Z,24.9
2018-04-30T09:49:07.353Z,24.9
2018-04-30T09:49:57.617Z,25.4
2018-04-30T09:50:47.391Z,25.6
2018-04-30T09:51:37.478Z,25.7
2018-04-30T09:52:27.041Z,26.2
2018-04-30T09:53:17.892Z,26.7
2018-04-30T09:54:07.936Z,26.8
2018-04-30T09:54:57.741Z,26.1
2018-04-30T09:55:48.073Z,25.2
2018-04-30T09:56:37.895Z,24.6
2018-04-30T09:57:28.233Z,24.7
2018-04-30T09:58:18.284Z,24.4
2018-04-30T09:59:07.800Z,25.1
2018-04-30T09:59:58.432Z,25.6
2018-04-30T10:00:48.479Z,25.3
2018-04-30T10:01:38.553Z,25.4
2018-04-30T10:02:28.620Z,25.8
2018-04-30T10:03:18.717Z,26.4
2018-04-30T10:04:08.742Z,26.4
2018-04-30T10:04:58.822Z,25.9
2018-04-30T10:05:48.880Z,25.6
2018-04-30T10:06:38.678Z,25.4
2018-04-30T10:07:28.767Z,24.8
2018-04-30T10:08:18.798Z,24.5
2018-04-30T10:09:09.162Z,23.9
2018-04-30T10:09:59.206Z,23.9
2018-04-30T10:10:49.282Z,24.4
2018-04-30T10:11:39.076Z,24.4
2018-04-30T10:12:28.860Z,24.1
2018-04-30T10:13:19.478Z,24.3
2018-04-30T10:14:09.564Z,24.8
2018-04-30T10:14:59.126Z,24.6
2018-04-30T10:15:49.136Z,25.1
2018-04-30T10:16:39.190Z,25
2018-04-30T10:17:29.567Z,24.9
2018-04-30T10:18:19.901Z,24.2
2018-04-30T10:19:09.980Z,24.1
2018-04-30T10:19:59.463Z,24.6
2018-04-30T10:20:49.788Z,24.6
2018-04-30T10:21:40.151Z,24.1
2018-04-30T10:22:29.663Z,24.3
2018-04-30T10:23:20.715Z,24.6
2018-04-30T10:24:10.042Z,24.6
2018-04-30T10:24:59.568Z,24.9
2018-04-30T10:25:50.454Z,24.9
2018-04-30T10:26:40.555Z,25.2
2018-04-30T10:27:30.183Z,24.9
2018-04-30T10:28:20.103Z,25.4
2018-04-30T10:29:10.610Z,25.6
2018-04-30T10:30:00.337Z,25.9
2018-04-30T10:30:50.861Z,26.2
2018-04-30T10:31:41.328Z,26.4
2018-04-30T10:32:30.732Z,26.7
2018-04-30T10:33:20.815Z,27.4
2018-04-30T10:34:10.860Z,27.5
2018-04-30T10:35:00.939Z,27.4
2018-04-30T10:35:50.774Z,26.6
2018-04-30T10:36:41.082Z,26
2018-04-30T10:37:31.389Z,26.1
2018-04-30T10:38:21.492Z,25.8
2018-04-30T10:39:11.007Z,25.4
2018-04-30T10:40:01.345Z,25.6
2018-04-30T10:40:51.667Z,25.6
2018-04-30T10:41:41.732Z,25.9
2018-04-30T10:42:31.532Z,26.6
2018-04-30T10:43:21.029Z,27
2018-04-30T10:44:11.927Z,26.8
2018-04-30T10:45:02.019Z,27.1
2018-04-30T10:45:52.893Z,27.2
2018-04-30T10:46:41.869Z,26.9
2018-04-30T10:47:32.231Z,27.4
2018-04-30T10:48:22.274Z,27.9
2018-04-30T10:49:12.352Z,28
2018-04-30T10:50:02.132Z,27.4
2018-04-30T10:50:51.905Z,27.4
2018-04-30T10:51:42.210Z,27.5
2018-04-30T10:52:32.301Z,27.5
2018-04-30T10:53:22.659Z,27.8
2018-04-30T10:54:12.733Z,27.3
2018-04-30T10:55:02.525Z,26.9
2018-04-30T10:55:52.886Z,27.3
2018-04-30T10:56:42.923Z,27.3
2018-04-30T10:57:32.720Z,27
2018-04-30T10:58:23.080Z,26.5
2018-04-30T10:59:13.148Z,26.2
2018-04-30T11:00:02.933Z,26.4
2018-04-30T11:00:53.246Z,26.4
2018-04-30T11:01:42.507Z,26.8
2018-04-30T11:02:33.354Z,26.9
2018-04-30T11:03:23.456Z,27
2018-04-30T11:04:13.582Z,27.3
2018-04-30T11:05:03.336Z,27.5
2018-04-30T11:07:33.226Z,27.4
2018-04-30T11:08:23.881Z,27.3
2018-04-30T11:09:13.652Z,27.1
2018-04-30T11:10:03.733Z,27.6
2018-04-30T11:11:44.119Z,27.6
2018-04-30T11:12:34.015Z,27
2018-04-30T11:13:23.692Z,27.1
2018-04-30T11:14:14.319Z,27.1
2018-04-30T11:15:04.380Z,27.3
2018-04-30T11:15:54.442Z,27.3
2018-04-30T11:16:44.517Z,27.5
2018-04-30T11:17:34.575Z,27.8
2018-04-30T11:18:24.375Z,27.9
2018-04-30T11:19:14.142Z,27.9
2018-04-30T11:20:04.518Z,27.8
2018-04-30T11:20:54.555Z,27.9
2018-04-30T11:21:44.636Z,27.9
2018-04-30T11:22:34.977Z,27.6
2018-04-30T11:23:25.080Z,27.5
2018-04-30T11:24:15.110Z,27.3
2018-04-30T11:25:05.175Z,26.8
2018-04-30T11:25:55.251Z,26.6
2018-04-30T11:26:44.745Z,26.9
2018-04-30T11:27:35.636Z,27.5
2018-04-30T11:28:25.466Z,27.6
2018-04-30T11:29:15.516Z,27.8
2018-04-30T11:30:05.312Z,27.9
2018-04-30T11:30:55.656Z,28.2
2018-04-30T11:31:45.422Z,28.3
2018-04-30T11:32:35.519Z,28.4
2018-04-30T11:33:25.888Z,28.5
2018-04-30T11:34:15.851Z,28.2
2018-04-30T11:35:06.034Z,27.2
2018-04-30T11:35:56.099Z,27.3
2018-04-30T11:36:46.153Z,27.3
2018-04-30T11:37:36.211Z,27
2018-04-30T11:38:26.277Z,26.8
2018-04-30T11:39:16.040Z,26.8
2018-04-30T11:40:07.125Z,26.2
2018-04-30T11:40:56.212Z,26.4
2018-04-30T11:41:46.544Z,26.9
2018-04-30T11:42:36.589Z,27.2
2018-04-30T11:43:26.681Z,27.1
2018-04-30T11:44:17.618Z,26.8
2018-04-30T11:45:06.541Z,26.3
2018-04-30T11:45:56.869Z,25.8
2018-04-30T11:46:46.675Z,25.9
2018-04-30T11:47:37.358Z,26
2018-04-30T11:48:26.810Z,25.9
2018-04-30T11:49:16.601Z,25.7
2018-04-30T11:50:06.924Z,25.7
2018-04-30T11:50:58.629Z,26.3
2018-04-30T11:51:46.563Z,26.4
2018-04-30T11:52:37.388Z,26.6
2018-04-30T11:53:26.908Z,25.9
2018-04-30T11:54:16.667Z,25.7
2018-04-30T11:55:07.612Z,25.9
2018-04-30T11:55:57.718Z,25.8
2018-04-30T11:56:47.171Z,25.9
2018-04-30T11:57:37.563Z,25.9
2018-04-30T11:58:27.871Z,25.7
2018-04-30T11:59:17.637Z,25.6
2018-04-30T12:00:07.151Z,25.8
2018-04-30T12:00:58.102Z,25.9
2018-04-30T12:01:47.852Z,26.1
2018-04-30T12:02:37.919Z,25.9
2018-04-30T12:03:27.953Z,25.9
2018-04-30T12:04:18.023Z,25.8
2018-04-30T12:05:08.410Z,25.8
2018-04-30T12:05:57.895Z,25.9
2018-04-30T12:06:48.290Z,25.9
2018-04-30T12:07:38.625Z,26
2018-04-30T12:08:28.662Z,26.3
2018-04-30T12:09:18.444Z,26.1
2018-04-30T12:10:09.303Z,26.1
2018-04-30T12:10:59.332Z,26
2018-04-30T12:11:48.964Z,25.8
2018-04-30T12:12:38.414Z,25.4
2018-04-30T12:13:30.041Z,25.3
2018-04-30T12:14:18.828Z,24.9
2018-04-30T12:15:09.225Z,25.1
2018-04-30T12:15:58.885Z,25.6
2018-04-30T12:16:51.326Z,25.2
2018-04-30T12:17:39.245Z,25.4
2018-04-30T12:18:29.191Z,25.3
2018-04-30T12:19:18.762Z,25.3
2018-04-30T12:20:09.352Z,25.4
2018-04-30T12:20:59.196Z,25.3
2018-04-30T12:21:49.303Z,25.4
2018-04-30T12:22:39.824Z,25.4
2018-04-30T12:23:29.858Z,25.7
2018-04-30T12:24:19.624Z,25.9
2018-04-30T12:25:10.000Z,25.9
2018-04-30T12:25:59.771Z,25.4
2018-04-30T12:26:49.257Z,25.2
2018-04-30T12:27:40.251Z,25.1
2018-04-30T12:28:29.979Z,25.1
2018-04-30T12:29:20.324Z,25.4
2018-04-30T12:30:10.095Z,25.8
2018-04-30T12:31:00.457Z,25.6
2018-04-30T12:31:50.513Z,25.4
2018-04-30T12:32:40.661Z,25.6
2018-04-30T12:33:31.369Z,25.9
2018-04-30T12:34:20.707Z,25.8
2018-04-30T12:35:10.800Z,25.4
2018-04-30T12:36:01.073Z,25
2018-04-30T12:36:50.622Z,24.9
2018-04-30T12:37:40.695Z,25.1
2018-04-30T12:38:30.572Z,24.9
2018-04-30T12:39:22.372Z,24.8
2018-04-30T12:40:11.196Z,25
2018-04-30T12:41:01.462Z,25.1
2018-04-30T12:41:50.737Z,24.9
2018-04-30T12:42:43.637Z,24.9
2018-04-30T12:43:31.472Z,25
2018-04-30T12:44:21.226Z,24.9
2018-04-30T12:45:11.599Z,24.9
2018-04-30T12:46:02.301Z,25.1
2018-04-30T12:46:51.713Z,25.5
2018-04-30T12:47:41.520Z,25.8
2018-04-30T12:48:31.562Z,25.7
2018-04-30T12:49:21.720Z,25.8
2018-04-30T12:50:11.978Z,25.4
2018-04-30T12:51:01.783Z,25.1
2018-04-30T12:51:52.101Z,25
2018-04-30T12:52:41.907Z,25
2018-04-30T12:53:32.243Z,24.7
2018-04-30T12:54:22.302Z,24.6
2018-04-30T12:55:12.382Z,24.6
2018-04-30T12:56:03.052Z,24.7
2018-04-30T12:56:52.498Z,24.7
2018-04-30T12:57:42.284Z,24.6
2018-04-30T12:58:33.187Z,24.8
2018-04-30T12:59:22.436Z,24.6
2018-04-30T13:00:12.784Z,24.8
2018-04-30T13:01:02.854Z,24.6
2018-04-30T13:01:55.644Z,24.4
2018-04-30T13:02:43.011Z,24.7
2018-04-30T13:03:32.749Z,24.8
2018-04-30T13:04:22.239Z,24.7
2018-04-30T13:05:12.887Z,24.8
2018-04-30T13:06:03.320Z,24.8
2018-04-30T13:06:53.332Z,24.8
2018-04-30T13:07:42.511Z,24.8
2018-04-30T13:08:33.444Z,24.5
2018-04-30T13:09:23.241Z,24.7
2018-04-30T13:10:13.562Z,24.8
2018-04-30T13:11:04.633Z,24.9
2018-04-30T13:11:53.709Z,24.9
2018-04-30T13:12:43.472Z,25.1
2018-04-30T13:13:33.908Z,25.1
2018-04-30T13:14:26.539Z,25.2
2018-04-30T13:15:13.674Z,25.3
2018-04-30T13:16:04.029Z,25.2
2018-04-30T13:16:54.073Z,25.1
2018-04-30T13:17:43.846Z,24.8
2018-04-30T13:18:34.188Z,24.9
2018-04-30T13:19:24.265Z,24.9
2018-04-30T13:20:14.299Z,24.7
2018-04-30T13:21:04.374Z,24.6
2018-04-30T13:21:54.494Z,24.5
2018-04-30T13:22:44.311Z,24.6
2018-04-30T13:23:34.573Z,24.6
2018-04-30T13:24:24.628Z,24.3
2018-04-30T13:25:14.699Z,24.3
2018-04-30T13:26:04.559Z,24.3
2018-04-30T13:26:54.301Z,24.3
2018-04-30T13:27:44.915Z,24.1
2018-04-30T13:28:35.290Z,24.2
2018-04-30T13:29:24.494Z,24
2018-04-30T13:30:15.122Z,23.9
2018-04-30T13:31:04.910Z,24
2018-04-30T13:31:55.234Z,24.1
2018-04-30T13:32:45.329Z,24.2
2018-04-30T13:33:35.369Z,24.5
2018-04-30T13:34:25.165Z,24.4
2018-04-30T13:35:15.529Z,24.4
2018-04-30T13:36:05.279Z,24.5
2018-04-30T13:36:55.629Z,24.4
2018-04-30T13:37:45.694Z,24.3
2018-04-30T13:38:35.500Z,24.3
2018-04-30T13:39:25.819Z,24.3
2018-04-30T13:40:15.883Z,24.4
2018-04-30T13:41:05.971Z,24.5
2018-04-30T13:41:56.019Z,24.4
2018-04-30T13:42:46.110Z,24.3
2018-04-30T13:43:36.398Z,24.2
2018-04-30T13:44:25.939Z,24.3
2018-04-30T13:45:16.309Z,24.4
2018-04-30T13:46:06.364Z,24.4
2018-04-30T13:46:56.424Z,24.4
2018-04-30T13:47:46.186Z,24.6
2018-04-30T13:48:36.577Z,24.7
2018-04-30T13:49:26.613Z,24.8
2018-04-30T13:50:16.668Z,24.6
2018-04-30T13:51:06.466Z,24.3
2018-04-30T13:51:56.828Z,24.3
2018-04-30T13:52:46.620Z,24.2
2018-04-30T13:53:36.960Z,24.1
2018-04-30T13:54:27.094Z,24.1
2018-04-30T13:55:17.328Z,24.1
2018-04-30T13:56:06.568Z,24.4
2018-04-30T13:56:57.235Z,24.6
2018-04-30T13:57:47.334Z,24.3
2018-04-30T13:58:37.368Z,24.1
2018-04-30T13:59:26.868Z,24.1
2018-04-30T14:00:17.458Z,24
2018-04-30T14:01:07.245Z,24
2018-04-30T14:01:57.610Z,24.1
2018-04-30T14:02:47.390Z,24
2018-04-30T14:03:37.735Z,24
2018-04-30T14:04:27.805Z,24
2018-04-30T14:05:17.589Z,23.9
2018-04-30T14:06:07.945Z,23.9
2018-04-30T14:06:58.007Z,23.8
2018-04-30T14:07:47.483Z,23.8
2018-04-30T14:08:38.109Z,23.9
2018-04-30T14:09:28.247Z,23.9
2018-04-30T14:10:17.989Z,23.8
2018-04-30T14:11:08.325Z,23.8
2018-04-30T14:11:58.375Z,23.9
2018-04-30T14:12:48.456Z,23.9
2018-04-30T14:13:38.609Z,23.9
2018-04-30T14:14:28.573Z,23.9
2018-04-30T14:15:18.104Z,23.9
2018-04-30T14:16:09.135Z,23.9
2018-04-30T14:16:58.507Z,23.8
2018-04-30T14:17:48.831Z,23.7
2018-04-30T14:18:38.906Z,23.7
2018-04-30T14:19:29.003Z,23.8
2018-04-30T14:20:18.782Z,23.9
2018-04-30T14:21:09.122Z,24
2018-04-30T14:21:59.175Z,24
2018-04-30T14:22:49.254Z,23.9
2018-04-30T14:23:39.027Z,23.8
2018-04-30T14:24:29.107Z,23.9
2018-04-30T14:25:18.892Z,23.7
2018-04-30T14:26:09.220Z,23.7
2018-04-30T14:26:58.427Z,23.6
2018-04-30T14:27:49.642Z,23.7
2018-04-30T14:28:39.409Z,23.6
2018-04-30T14:29:29.786Z,23.6
2018-04-30T14:30:19.831Z,23.6
2018-04-30T14:31:08.496Z,23.6
2018-04-30T14:31:59.951Z,23.6
2018-04-30T14:32:49.761Z,23.6
2018-04-30T14:33:39.822Z,23.5
2018-04-30T14:34:29.589Z,23.3
2018-04-30T14:35:19.954Z,23.4
2018-04-30T14:36:10.298Z,23.4
2018-04-30T14:37:00.061Z,23.4
2018-04-30T14:37:50.159Z,23.3
2018-04-30T14:38:40.224Z,23.3
2018-04-30T14:39:30.334Z,23.3
2018-04-30T14:40:20.608Z,23.2
2018-04-30T14:41:10.123Z,23.3
2018-04-30T14:42:00.774Z,23.3
2018-04-30T14:42:50.844Z,23.4
2018-04-30T14:43:40.618Z,23.3
2018-04-30T14:44:31.303Z,23.3
2018-04-30T14:45:20.742Z,23.3
2018-04-30T14:46:10.801Z,23.3
2018-04-30T14:47:01.125Z,23.3
2018-04-30T14:47:51.189Z,23.3
2018-04-30T14:48:40.998Z,23.3
2018-04-30T14:49:31.342Z,23.3
2018-04-30T14:50:21.117Z,23.3
2018-04-30T14:51:11.469Z,23.3
2018-04-30T14:52:00.970Z,23.3
2018-04-30T14:52:51.307Z,23.2
2018-04-30T14:53:41.662Z,23.3
2018-04-30T14:54:31.456Z,23.4
2018-04-30T14:55:21.513Z,23.4
2018-04-30T14:56:11.878Z,23.5
2018-04-30T14:57:01.940Z,23.4
2018-04-30T14:57:51.719Z,23.5
2018-04-30T14:58:41.749Z,23.3
2018-04-30T14:59:32.126Z,23.2
2018-04-30T15:00:22.222Z,23.2
2018-04-30T15:01:12.256Z,23.1
2018-04-30T15:02:02.337Z,23.2
2018-04-30T15:02:52.387Z,23.2
2018-04-30T15:03:42.456Z,23.1
2018-04-30T15:04:32.252Z,23.2
2018-04-30T15:05:22.023Z,23.2
2018-04-30T15:06:12.457Z,23.4
2018-04-30T15:07:02.149Z,23.4
2018-04-30T15:07:52.774Z,23.4
2018-04-30T15:08:42.839Z,23.4
2018-04-30T15:09:32.909Z,23.3
2018-04-30T15:10:22.683Z,23.3
2018-04-30T15:11:12.771Z,23.3
2018-04-30T15:12:02.828Z,23.3
2018-04-30T15:12:52.603Z,23.3
2018-04-30T15:13:42.946Z,23.3
2018-04-30T15:14:33.379Z,23.4
2018-04-30T15:15:22.816Z,23.3
2018-04-30T15:16:13.152Z,23.4
2018-04-30T15:17:03.236Z,23.6
2018-04-30T15:17:53.579Z,23.6
2018-04-30T15:18:43.338Z,23.4
2018-04-30T15:19:33.968Z,23.3
2018-04-30T15:20:23.184Z,23.3
2018-04-30T15:21:13.256Z,23.4
2018-04-30T15:22:03.585Z,23.4
2018-04-30T15:22:53.656Z,23.4
2018-04-30T15:23:44.020Z,23.4
2018-04-30T15:24:34.113Z,23.4
2018-04-30T15:25:23.879Z,23.4
2018-04-30T15:26:14.239Z,23.4
2018-04-30T15:27:04.353Z,23.3
2018-04-30T15:27:53.771Z,23.2
2018-04-30T15:28:44.110Z,23.2
2018-04-30T15:29:33.895Z,23.2
2018-04-30T15:30:24.253Z,23.3
2018-04-30T15:31:14.610Z,23.4
2018-04-30T15:32:04.393Z,23.4
2018-04-30T15:32:54.750Z,23.3
2018-04-30T15:33:44.553Z,23.4
2018-04-30T15:34:34.870Z,23.3
2018-04-30T15:35:24.938Z,23.4
2018-04-30T15:36:15.034Z,23.4
2018-04-30T15:37:05.051Z,23.5
2018-04-30T15:37:55.116Z,23.4
2018-04-30T15:38:44.938Z,23.3
2018-04-30T15:39:35.273Z,23.3
2018-04-30T15:40:24.745Z,23.4
2018-04-30T15:41:15.406Z,23.4
2018-04-30T15:42:05.503Z,23.6
2018-04-30T15:42:55.512Z,23.4
2018-04-30T15:43:44.750Z,23.4
2018-04-30T15:44:35.650Z,23.4
2018-04-30T15:45:25.426Z,23.2
2018-04-30T15:46:15.772Z,23.1
2018-04-30T15:47:05.848Z,23.2
2018-04-30T15:47:55.933Z,23.1
2018-04-30T15:48:45.989Z,23.1
2018-04-30T15:49:36.048Z,23.3
2018-04-30T15:50:25.533Z,23.3
2018-04-30T15:51:16.183Z,23.1
2018-04-30T15:52:06.252Z,23.1
2018-04-30T15:52:56.016Z,23.1
2018-04-30T15:53:46.084Z,23.1
2018-04-30T15:54:36.026Z,23.1
2018-04-30T15:55:26.206Z,23.1
2018-04-30T15:56:16.553Z,23.1
2018-04-30T15:57:06.087Z,23.1
2018-04-30T15:57:56.791Z,23.1
2018-04-30T15:58:46.778Z,23.1
2018-04-30T15:59:36.538Z,23.1
2018-04-30T16:00:26.321Z,23.1
2018-04-30T16:01:16.455Z,23.1
2018-04-30T16:02:06.464Z,23.1
2018-04-30T16:02:57.072Z,23.1
2018-04-30T16:03:46.891Z,23.1
2018-04-30T16:04:37.241Z,23.2
2018-04-30T16:05:26.992Z,23.2
2018-04-30T16:06:17.351Z,23.1
2018-04-30T16:07:07.135Z,23.2
2018-04-30T16:07:57.196Z,23.3
2018-04-30T16:08:47.252Z,23.4
2018-04-30T16:09:37.598Z,23.5
2018-04-30T16:10:27.417Z,23.5
2018-04-30T16:11:17.182Z,23.5
2018-04-30T16:12:07.800Z,23.6
2018-04-30T16:12:57.674Z,23.6
2018-04-30T16:13:47.953Z,23.6
2018-04-30T16:14:38.001Z,23.6
2018-04-30T16:15:27.479Z,23.6
2018-04-30T16:16:18.145Z,23.4
2018-04-30T16:17:07.939Z,23.5
2018-04-30T16:17:57.993Z,23.4
2018-04-30T16:18:48.036Z,23.4
2018-04-30T16:19:38.369Z,23.3
2018-04-30T16:20:27.844Z,23.2
2018-04-30T16:21:18.534Z,23.2
2018-04-30T16:22:08.289Z,23.2
2018-04-30T16:22:58.384Z,23.2
2018-04-30T16:23:48.731Z,23.1
2018-04-30T16:24:38.767Z,23.1
2018-04-30T16:25:28.561Z,23.1
2018-04-30T16:26:18.920Z,23.1
2018-04-30T16:27:08.718Z,23.1